createdAt,value
2023-02-01T00:03:58.357Z,101787.84
2023-02-01T00:09:01.218Z,101799.94
2023-02-01T00:14:05.534Z,101799.06
2023-02-01T00:19:11.330Z,101815.50
2023-02-01T00:24:36.356Z,101811.13
2023-02-01T00:29:40.641Z,101818.06
2023-02-01T00:34:43.627Z,101790.41
2023-02-01T00:39:46.482Z,101800.81
2023-02-01T00:44:51.194Z,101785.25
2023-02-01T00:49:54.077Z,101779.19
2023-02-01T00:54:57.006Z,101780.06
2023-02-01T01:00:01.217Z,101780.09
2023-02-01T01:05:04.095Z,101795.63
2023-02-01T01:10:07.805Z,101783.59
2023-02-01T01:15:12.918Z,101780.16
2023-02-01T01:20:15.854Z,101795.75
2023-02-01T01:25:18.675Z,101783.72
2023-02-01T01:30:23.522Z,101788.03
2023-02-01T01:35:26.557Z,101778.53
2023-02-01T01:40:30.232Z,101782.81
2023-02-01T01:45:35.991Z,101770.72
2023-02-01T01:50:42.723Z,101767.25
2023-02-01T01:55:47.471Z,101749.00
2023-02-01T02:00:51.728Z,101761.97
2023-02-01T02:05:57.647Z,101758.41
2023-02-01T02:11:03.612Z,101741.03
2023-02-01T02:16:19.525Z,101744.56
2023-02-01T02:21:37.580Z,101741.97
2023-02-01T02:27:01.978Z,101707.34
2023-02-01T02:32:40.411Z,101703.78
2023-02-01T02:37:48.191Z,101696.88
2023-02-01T02:43:12.521Z,101689.06
2023-02-01T02:48:21.234Z,101699.44
2023-02-01T02:53:44.270Z,101694.28
2023-02-01T02:59:05.716Z,101689.81
2023-02-01T03:04:10.628Z,101692.25
2023-02-01T03:09:22.971Z,101668.00
2023-02-01T03:14:28.898Z,101687.06
2023-02-01T03:19:34.155Z,101649.03
2023-02-01T03:24:41.400Z,101665.59
2023-02-01T03:29:48.209Z,101677.72
2023-02-01T03:34:51.810Z,101663.88
2023-02-01T03:40:02.625Z,101683.69
2023-02-01T03:45:11.855Z,101688.06
2023-02-01T03:50:16.676Z,101708.03
2023-02-01T03:55:23.294Z,101688.94
2023-02-01T04:00:28.236Z,101682.91
2023-02-01T04:05:33.087Z,101688.94
2023-02-01T04:10:41.000Z,101683.78
2023-02-01T04:15:44.774Z,101687.28
2023-02-01T04:20:47.548Z,101695.13
2023-02-01T04:25:51.940Z,101664.84
2023-02-01T04:30:56.236Z,101668.31
2023-02-01T04:35:59.114Z,101682.16
2023-02-01T04:41:03.291Z,101673.53
2023-02-01T04:46:06.627Z,101677.84
2023-02-01T04:51:10.857Z,101658.84
2023-02-01T04:56:15.091Z,101668.38
2023-02-01T05:01:17.962Z,101665.81
2023-02-01T05:06:20.846Z,101678.81
2023-02-01T05:11:41.816Z,101688.31
2023-02-01T05:16:44.747Z,101690.06
2023-02-01T05:21:47.521Z,101700.44
2023-02-01T05:26:51.863Z,101687.47
2023-02-01T05:31:54.938Z,101690.06
2023-02-01T05:36:57.844Z,101683.13
2023-02-01T05:42:03.179Z,101676.13
2023-02-01T05:47:06.327Z,101665.66
2023-02-01T05:52:09.255Z,101698.38
2023-02-01T05:57:13.875Z,101687.16
2023-02-01T06:02:16.849Z,101673.28
2023-02-01T06:07:19.751Z,101693.16
2023-02-01T06:12:23.996Z,101687.06
2023-02-01T06:17:26.979Z,101684.41
2023-02-01T06:22:29.791Z,101687.84
2023-02-01T06:27:34.152Z,101691.31
2023-02-01T06:32:37.015Z,101686.22
2023-02-01T06:37:39.826Z,101686.22
2023-02-01T06:42:43.989Z,101687.09
2023-02-01T06:47:46.809Z,101686.22
2023-02-01T06:52:49.648Z,101689.66
2023-02-01T06:57:56.610Z,101674.97
2023-02-01T07:02:59.884Z,101696.63
2023-02-01T07:08:02.752Z,101684.56
2023-02-01T07:13:08.975Z,101684.59
2023-02-01T07:18:11.931Z,101697.59
2023-02-01T07:23:14.812Z,101682.03
2023-02-01T07:28:19.220Z,101677.59
2023-02-01T07:33:24.005Z,101690.56
2023-02-01T07:38:27.465Z,101687.94
2023-02-01T07:43:31.888Z,101691.41
2023-02-01T07:48:35.778Z,101688.00
2023-02-01T07:53:42.075Z,101699.34
2023-02-01T07:58:49.413Z,101696.78
2023-02-01T08:03:54.325Z,101699.47
2023-02-01T08:08:59.846Z,101702.06
2023-02-01T08:14:04.112Z,101680.47
2023-02-01T08:19:29.937Z,101676.22
2023-02-01T08:24:32.917Z,101678.84
2023-02-01T08:29:37.240Z,101672.00
2023-02-01T08:34:40.105Z,101678.97
2023-02-01T08:39:46.797Z,101676.38
2023-02-01T08:44:54.753Z,101680.72
2023-02-01T08:49:57.677Z,101685.91
2023-02-01T08:55:02.328Z,101666.88
2023-02-01T09:00:09.380Z,101685.91
2023-02-01T09:05:12.956Z,101669.47
2023-02-01T09:10:18.896Z,101684.19
2023-02-01T09:15:25.296Z,101678.09
2023-02-01T09:20:28.256Z,101666.00
2023-02-01T09:25:31.108Z,101652.88
2023-02-01T09:30:35.766Z,101661.50
2023-02-01T09:35:39.147Z,101651.97
2023-02-01T09:40:44.226Z,101632.91
2023-02-01T09:45:54.995Z,101641.50
2023-02-01T09:51:00.136Z,101631.06
2023-02-01T09:56:07.659Z,101608.56
2023-02-01T10:01:21.578Z,101580.03
2023-02-01T10:06:32.867Z,101588.72
2023-02-01T10:11:50.123Z,101574.09
2023-02-01T10:16:59.120Z,101572.44
2023-02-01T10:22:04.281Z,101591.53
2023-02-01T10:27:15.155Z,101596.72
2023-02-01T10:32:21.698Z,101594.91
2023-02-01T10:37:32.259Z,101594.91
2023-02-01T10:42:35.264Z,101600.97
2023-02-01T10:47:39.827Z,101603.63
2023-02-01T10:52:46.757Z,101601.09
2023-02-01T10:57:57.954Z,101619.31
2023-02-01T11:03:02.329Z,101612.41
2023-02-01T11:08:05.518Z,101628.84
2023-02-01T11:13:17.234Z,101607.16
2023-02-01T11:18:27.832Z,101612.38
2023-02-01T11:23:34.459Z,101607.19
2023-02-01T11:28:37.870Z,101611.56
2023-02-01T11:33:52.921Z,101601.22
2023-02-01T11:39:09.677Z,101588.22
2023-02-01T11:44:23.800Z,101601.22
2023-02-01T11:49:29.532Z,101611.59
2023-02-01T11:54:43.701Z,101615.06
2023-02-01T12:00:01.226Z,101607.28
2023-02-01T12:05:17.245Z,101608.13
2023-02-01T12:10:30.625Z,101595.16
2023-02-01T12:15:48.456Z,101593.41
2023-02-01T12:21:07.966Z,101600.38
2023-02-01T12:26:38.855Z,101580.44
2023-02-01T12:31:51.079Z,101592.56
2023-02-01T12:37:01.470Z,101602.97
2023-02-01T12:42:06.910Z,101618.59
2023-02-01T12:47:19.567Z,101598.66
2023-02-01T12:52:34.377Z,101591.72
2023-02-01T12:57:40.024Z,101605.56
2023-02-01T13:02:45.633Z,101605.56
2023-02-01T13:07:53.779Z,101603.00
2023-02-01T13:13:01.412Z,101615.13
2023-02-01T13:18:07.626Z,101612.53
2023-02-01T13:23:17.993Z,101615.09
2023-02-01T13:28:26.480Z,101617.66
2023-02-01T13:33:53.727Z,101608.16
2023-02-01T13:39:25.908Z,101624.63
2023-02-01T13:44:33.082Z,101599.50
2023-02-01T13:49:40.689Z,101618.53
2023-02-01T13:54:44.934Z,101626.31
2023-02-01T13:59:53.269Z,101628.94
2023-02-01T14:04:56.248Z,101622.88
2023-02-01T14:10:02.268Z,101596.91
2023-02-01T14:15:26.744Z,101614.25
2023-02-01T14:20:44.704Z,101628.09
2023-02-01T14:26:03.880Z,101620.31
2023-02-01T14:31:18.511Z,101621.13
2023-02-01T14:36:22.777Z,101666.94
2023-02-01T14:41:33.583Z,101633.03
2023-02-01T14:47:05.575Z,101614.81
2023-02-01T14:52:14.071Z,101591.53
2023-02-01T14:57:21.186Z,101578.53
2023-02-01T15:02:26.978Z,101561.31
2023-02-01T15:07:31.093Z,101550.97
2023-02-01T15:12:45.407Z,101556.16
2023-02-01T15:17:55.719Z,101547.53
2023-02-01T15:23:00.291Z,101558.78
2023-02-01T15:28:08.023Z,101550.97
2023-02-01T15:33:20.307Z,101575.25
2023-02-01T15:38:40.919Z,101578.69
2023-02-01T15:43:48.792Z,101580.44
2023-02-01T15:48:56.386Z,101579.56
2023-02-01T15:54:02.036Z,101615.97
2023-02-01T15:59:08.696Z,101680.78
2023-02-01T16:04:19.409Z,101630.34
2023-02-01T16:09:23.701Z,101628.41
2023-02-01T16:14:28.536Z,101635.28
2023-02-01T16:19:33.915Z,101611.94
2023-02-01T16:24:36.827Z,101608.53
2023-02-01T16:29:42.187Z,101607.69
2023-02-01T16:34:46.256Z,101596.53
2023-02-01T16:39:51.821Z,101579.34
2023-02-01T16:44:56.127Z,101575.06
2023-02-01T16:49:59.090Z,101574.25
2023-02-01T16:55:01.960Z,101593.31
2023-02-01T17:00:22.332Z,101582.06
2023-02-01T17:05:29.807Z,101587.25
2023-02-01T17:10:34.371Z,101597.63
2023-02-01T17:15:39.464Z,101590.69
2023-02-01T17:20:43.508Z,101621.91
2023-02-01T17:25:49.281Z,101611.53
2023-02-01T17:30:53.618Z,101627.16
2023-02-01T17:35:57.289Z,101623.66
2023-02-01T17:41:00.295Z,101650.47
2023-02-01T17:46:07.294Z,101679.91
2023-02-01T17:51:16.784Z,101655.63
2023-02-01T17:56:21.423Z,101678.97
2023-02-01T18:01:26.049Z,101689.28
2023-02-01T18:06:30.702Z,101684.97
2023-02-01T18:11:33.698Z,101695.34
2023-02-01T18:16:38.257Z,101688.47
2023-02-01T18:21:43.391Z,101685.91
2023-02-01T18:26:46.238Z,101677.31
2023-02-01T18:31:50.885Z,101667.81
2023-02-01T18:36:53.906Z,101658.31
2023-02-01T18:41:56.711Z,101647.94
2023-02-01T18:47:01.626Z,101645.38
2023-02-01T18:52:05.988Z,101654.03
2023-02-01T18:57:09.380Z,101659.28
2023-02-01T19:02:14.975Z,101677.47
2023-02-01T19:07:17.931Z,101696.56
2023-02-01T19:12:22.422Z,101717.34
2023-02-01T19:17:26.668Z,101735.59
2023-02-01T19:22:29.453Z,101746.88
2023-02-01T19:27:32.283Z,101752.97
2023-02-01T19:32:36.585Z,101754.69
2023-02-01T19:37:41.369Z,101752.91
2023-02-01T19:42:44.306Z,101751.19
2023-02-01T19:47:48.594Z,101751.19
2023-02-01T19:52:51.509Z,101759.84
2023-02-01T19:57:54.276Z,101766.81
2023-02-01T20:02:58.453Z,101772.88
2023-02-01T20:08:01.564Z,101784.13
2023-02-01T20:13:04.403Z,101790.16
2023-02-01T20:18:08.662Z,101799.69
2023-02-01T20:23:11.567Z,101798.84
2023-02-01T20:28:15.281Z,101807.50
2023-02-01T20:33:19.707Z,101821.34
2023-02-01T20:38:22.626Z,101826.56
2023-02-01T20:43:25.659Z,101827.41
2023-02-01T20:48:30.647Z,101823.91
2023-02-01T20:53:33.472Z,101822.16
2023-02-01T20:58:36.336Z,101824.75
2023-02-01T21:03:40.759Z,101840.31
2023-02-01T21:08:45.579Z,101838.56
2023-02-01T21:13:51.584Z,101848.94
2023-02-01T21:18:55.785Z,101835.94
2023-02-01T21:23:59.259Z,101832.41
2023-02-01T21:29:02.058Z,101835.84
2023-02-01T21:34:06.803Z,101832.38
2023-02-01T21:39:12.103Z,101841.03
2023-02-01T21:44:14.949Z,101844.50
2023-02-01T21:49:19.295Z,101856.63
2023-02-01T21:54:22.197Z,101852.28
2023-02-01T21:59:25.001Z,101854.91
2023-02-01T22:04:29.152Z,101851.47
2023-02-01T22:09:32.066Z,101845.44
2023-02-01T22:14:35.028Z,101854.13
2023-02-01T22:19:39.257Z,101843.75
2023-02-01T22:24:42.087Z,101842.09
2023-02-01T22:29:44.987Z,101849.03
2023-02-01T22:34:49.295Z,101854.22
2023-02-01T22:39:52.143Z,101873.22
2023-02-01T22:44:55.308Z,101887.06
2023-02-01T22:49:59.519Z,101894.00
2023-02-01T22:55:02.405Z,101894.84
2023-02-01T23:00:06.932Z,101901.75
2023-02-01T23:05:11.509Z,101904.31
2023-02-01T23:10:14.454Z,101900.81
2023-02-01T23:15:18.101Z,101901.69
2023-02-01T23:20:22.844Z,101910.41
2023-02-01T23:25:26.174Z,101903.53
2023-02-01T23:30:29.181Z,101908.78
2023-02-01T23:35:33.397Z,101919.22
2023-02-01T23:40:36.223Z,101915.75
2023-02-01T23:45:39.020Z,101901.03
2023-02-01T23:50:43.159Z,101901.91
2023-02-01T23:55:45.946Z,101911.44
